createdAt,value
2022-12-12T00:01:56.977Z,88.35
2022-12-12T00:04:24.930Z,88.39
2022-12-12T00:06:52.917Z,88.52
2022-12-12T00:09:21.061Z,88.54
2022-12-12T00:11:49.195Z,88.57
2022-12-12T00:14:18.157Z,88.93
2022-12-12T00:16:46.207Z,89.00
2022-12-12T00:19:21.702Z,88.78
2022-12-12T00:21:50.195Z,88.84
2022-12-12T00:39:47.832Z,88.82
2022-12-12T00:52:23.331Z,88.37
2022-12-12T00:55:35.378Z,88.20
2022-12-12T01:21:33.473Z,86.94
2022-12-12T01:23:35.048Z,86.66
2022-12-12T01:32:50.624Z,86.57
2022-12-12T01:54:20.159Z,84.86
2022-12-12T01:56:50.418Z,84.38
2022-12-12T01:59:23.098Z,84.65
2022-12-12T02:01:52.454Z,84.83
2022-12-12T02:04:22.470Z,84.69
2022-12-12T02:06:52.367Z,84.33
2022-12-12T02:09:21.895Z,83.76
2022-12-12T02:11:53.244Z,83.76
2022-12-12T02:14:26.655Z,83.85
2022-12-12T02:17:08.296Z,83.73
2022-12-12T02:19:57.950Z,83.52
2022-12-12T02:22:28.865Z,83.37
2022-12-12T02:25:28.433Z,83.49
2022-12-12T02:28:15.097Z,83.34
2022-12-12T02:31:17.410Z,83.38
2022-12-12T02:34:04.390Z,83.36
2022-12-12T02:36:38.271Z,83.28
2022-12-12T02:39:23.663Z,83.29
2022-12-12T02:41:59.484Z,83.02
2022-12-12T02:44:36.112Z,83.13
2022-12-12T02:47:14.412Z,83.02
2022-12-12T02:50:06.732Z,82.92
2022-12-12T02:52:36.454Z,82.90
2022-12-12T02:55:06.158Z,83.10
2022-12-12T02:57:35.655Z,83.19
2022-12-12T03:05:18.906Z,82.95
2022-12-12T03:07:49.831Z,83.07
2022-12-12T03:10:58.729Z,83.33
2022-12-12T03:13:58.695Z,83.28
2022-12-12T03:16:35.410Z,83.35
2022-12-12T03:19:24.871Z,83.21
2022-12-12T03:22:03.072Z,83.17
2022-12-12T03:24:48.664Z,83.34
2022-12-12T03:27:30.950Z,83.18
2022-12-12T03:30:12.618Z,83.14
2022-12-12T03:32:44.537Z,83.20
2022-12-12T03:35:19.630Z,83.19
2022-12-12T03:37:52.395Z,83.28
2022-12-12T03:40:46.451Z,83.09
2022-12-12T03:43:19.147Z,82.96
2022-12-12T03:46:02.863Z,83.01
2022-12-12T03:53:00.542Z,83.01
2022-12-12T03:55:46.026Z,83.02
2022-12-12T03:58:23.008Z,83.05
2022-12-12T04:00:53.882Z,82.87
2022-12-12T04:04:39.741Z,82.95
2022-12-12T04:08:07.291Z,83.04
2022-12-12T04:11:13.076Z,83.09
2022-12-12T04:14:01.616Z,83.08
2022-12-12T04:16:38.655Z,83.13
2022-12-12T04:19:36.799Z,83.11
2022-12-12T04:22:27.512Z,82.96
2022-12-12T04:25:04.909Z,82.87
2022-12-12T04:27:44.090Z,82.94
2022-12-12T04:30:14.650Z,82.85
2022-12-12T04:33:00.792Z,82.88
2022-12-12T04:35:41.290Z,82.95
2022-12-12T04:38:21.985Z,82.72
2022-12-12T04:40:57.823Z,82.65
2022-12-12T04:43:31.665Z,82.55
2022-12-12T04:46:05.950Z,82.63
2022-12-12T04:48:44.229Z,82.67
2022-12-12T04:51:16.761Z,82.49
2022-12-12T04:53:54.649Z,82.49
2022-12-12T04:56:29.517Z,82.42
2022-12-12T04:58:58.850Z,82.32
2022-12-12T05:01:38.431Z,82.32
2022-12-12T05:04:31.961Z,82.49
2022-12-12T05:07:10.356Z,82.46
2022-12-12T05:09:40.708Z,82.35
2022-12-12T05:12:09.608Z,82.41
2022-12-12T05:14:37.664Z,82.50
2022-12-12T05:17:12.311Z,82.46
2022-12-12T05:19:41.605Z,82.40
2022-12-12T05:22:09.666Z,82.32
2022-12-12T05:24:37.933Z,82.10
2022-12-12T05:27:06.094Z,81.90
2022-12-12T05:29:34.293Z,81.88
2022-12-12T05:32:03.045Z,81.78
2022-12-12T05:34:31.207Z,81.87
2022-12-12T05:37:00.964Z,81.88
2022-12-12T05:39:29.843Z,81.90
2022-12-12T05:41:57.780Z,81.84
2022-12-12T05:44:25.856Z,81.83
2022-12-12T05:46:53.821Z,81.62
2022-12-12T05:49:21.926Z,81.89
2022-12-12T05:51:49.964Z,81.98
2022-12-12T05:54:17.880Z,81.92
2022-12-12T05:56:46.121Z,81.81
2022-12-12T05:59:14.142Z,81.97
2022-12-12T06:01:42.195Z,81.90
2022-12-12T06:04:10.358Z,81.76
2022-12-12T06:06:38.388Z,81.61
2022-12-12T06:09:06.387Z,81.78
2022-12-12T06:11:34.307Z,81.98
2022-12-12T06:14:02.306Z,81.73
2022-12-12T06:16:30.592Z,81.58
2022-12-12T06:18:58.617Z,81.57
2022-12-12T06:21:26.868Z,81.52
2022-12-12T06:23:55.208Z,81.56
2022-12-12T06:26:24.359Z,81.53
2022-12-12T06:28:53.490Z,81.18
2022-12-12T06:31:21.478Z,81.27
2022-12-12T06:33:49.566Z,81.28
2022-12-12T06:36:26.832Z,81.48
2022-12-12T06:38:57.858Z,81.39
2022-12-12T06:41:28.690Z,81.27
2022-12-12T06:43:56.768Z,81.29
2022-12-12T06:46:27.944Z,81.31
2022-12-12T06:48:58.158Z,81.30
2022-12-12T06:51:29.426Z,81.25
2022-12-12T06:53:57.753Z,81.13
2022-12-12T06:56:26.771Z,81.23
2022-12-12T06:58:56.319Z,81.14
2022-12-12T07:01:25.023Z,80.83
2022-12-12T07:03:53.976Z,80.72
2022-12-12T07:06:23.557Z,80.70
2022-12-12T07:08:52.531Z,80.52
2022-12-12T07:11:23.851Z,80.48
2022-12-12T07:13:53.591Z,80.71
2022-12-12T07:16:21.730Z,81.09
2022-12-12T07:18:50.074Z,81.23
2022-12-12T07:21:20.189Z,81.21
2022-12-12T07:23:48.545Z,80.79
2022-12-12T07:26:21.802Z,80.09
2022-12-12T07:28:51.688Z,79.89
2022-12-12T07:31:22.765Z,80.08
2022-12-12T07:33:50.895Z,79.84
2022-12-12T07:36:18.918Z,79.82
2022-12-12T07:38:47.090Z,79.41
2022-12-12T07:41:17.819Z,78.28
2022-12-12T07:43:49.469Z,78.86
2022-12-12T07:46:21.489Z,79.26
2022-12-12T07:48:50.433Z,78.72
2022-12-12T07:51:19.047Z,78.29
2022-12-12T07:53:47.328Z,78.32
2022-12-12T07:56:17.148Z,77.98
2022-12-12T07:58:45.852Z,77.71
2022-12-12T08:01:24.028Z,78.18
2022-12-12T08:03:54.026Z,78.10
2022-12-12T08:06:23.362Z,77.95
2022-12-12T08:08:52.888Z,77.20
2022-12-12T08:11:23.237Z,77.08
2022-12-12T08:13:52.534Z,76.66
2022-12-12T08:16:25.736Z,76.70
2022-12-12T08:18:55.427Z,77.24
2022-12-12T08:21:26.007Z,77.38
2022-12-12T08:23:59.682Z,77.60
2022-12-12T08:26:30.061Z,77.51
2022-12-12T08:28:58.522Z,77.42
2022-12-12T08:31:27.506Z,77.61
2022-12-12T08:33:56.281Z,77.33
2022-12-12T08:36:26.944Z,76.98
2022-12-12T08:38:54.854Z,76.98
2022-12-12T08:41:25.302Z,77.34
2022-12-12T08:43:53.468Z,77.32
2022-12-12T08:46:22.184Z,77.61
2022-12-12T08:48:50.432Z,77.77
2022-12-12T08:51:18.921Z,78.00
2022-12-12T08:53:53.234Z,78.16
2022-12-12T08:56:23.149Z,78.38
2022-12-12T08:58:51.525Z,78.71
2022-12-12T09:01:22.309Z,78.35
2022-12-12T09:03:52.119Z,78.06
2022-12-12T09:06:21.401Z,78.62
2022-12-12T09:08:50.626Z,79.67
2022-12-12T09:11:19.487Z,79.97
2022-12-12T09:13:47.378Z,79.98
2022-12-12T09:16:15.545Z,79.75
2022-12-12T09:18:49.059Z,79.88
2022-12-12T09:21:18.199Z,79.88
2022-12-12T09:23:48.656Z,79.69
2022-12-12T09:26:18.080Z,80.05
2022-12-12T09:28:46.192Z,80.29
2022-12-12T09:31:14.879Z,80.27
2022-12-12T09:33:43.382Z,80.27
2022-12-12T09:36:13.194Z,79.78
2022-12-12T09:38:41.351Z,79.45
2022-12-12T09:41:09.305Z,79.14
2022-12-12T09:44:08.025Z,79.42
2022-12-12T09:46:42.139Z,79.95
2022-12-12T09:49:19.274Z,79.65
2022-12-12T09:51:50.255Z,78.97
2022-12-12T09:54:21.416Z,78.65
2022-12-12T09:57:15.690Z,78.97
2022-12-12T10:00:02.146Z,79.76
2022-12-12T10:02:43.859Z,80.00
2022-12-12T10:06:20.491Z,80.06
2022-12-12T10:08:54.318Z,80.09
2022-12-12T10:11:48.813Z,79.93
2022-12-12T10:14:48.405Z,79.84
2022-12-12T10:17:23.111Z,80.23
2022-12-12T10:19:55.004Z,80.27
2022-12-12T10:22:30.652Z,80.58
2022-12-12T10:25:25.564Z,80.57
2022-12-12T10:28:31.222Z,80.76
2022-12-12T10:31:17.967Z,80.95
2022-12-12T10:33:51.805Z,81.20
2022-12-12T10:36:46.480Z,81.21
2022-12-12T10:39:23.272Z,81.27
2022-12-12T10:42:19.775Z,81.56
2022-12-12T10:44:50.798Z,81.75
2022-12-12T10:47:19.028Z,82.02
2022-12-12T10:49:47.077Z,82.18
2022-12-12T10:52:22.988Z,82.28
2022-12-12T10:54:55.815Z,82.35
2022-12-12T10:57:29.759Z,82.49
2022-12-12T10:59:58.942Z,82.02
2022-12-12T11:02:42.492Z,81.20
2022-12-12T11:05:34.909Z,81.28
2022-12-12T11:08:06.661Z,81.51
2022-12-12T11:10:37.444Z,81.85
2022-12-12T11:13:09.027Z,81.96
2022-12-12T11:15:45.764Z,81.94
2022-12-12T11:18:21.861Z,81.78
2022-12-12T11:21:05.984Z,81.88
2022-12-12T11:23:35.984Z,81.53
2022-12-12T11:26:11.822Z,80.74
2022-12-12T11:28:42.338Z,80.76
2022-12-12T11:31:17.260Z,80.83
2022-12-12T11:33:49.141Z,80.71
2022-12-12T11:36:22.374Z,80.72
2022-12-12T11:38:54.870Z,80.45
2022-12-12T11:41:23.629Z,80.74
2022-12-12T11:43:51.454Z,80.75
2022-12-12T11:46:39.601Z,80.25
2022-12-12T11:49:19.402Z,79.58
2022-12-12T11:51:48.245Z,79.44
2022-12-12T11:54:23.955Z,79.39
2022-12-12T11:56:58.159Z,79.21
2022-12-12T11:59:44.147Z,78.95
2022-12-12T12:02:43.616Z,79.03
2022-12-12T12:05:32.196Z,79.21
2022-12-12T12:08:17.129Z,79.27
2022-12-12T12:11:08.620Z,79.14
2022-12-12T12:13:48.759Z,79.23
2022-12-12T12:16:49.210Z,79.50
2022-12-12T12:19:55.641Z,79.89
2022-12-12T12:22:50.041Z,80.13
2022-12-12T12:25:58.314Z,79.91
2022-12-12T12:29:01.932Z,80.24
2022-12-12T12:31:57.567Z,80.49
2022-12-12T12:34:52.186Z,80.72
2022-12-12T12:37:20.043Z,80.61
2022-12-12T12:40:12.215Z,80.67
2022-12-12T12:42:52.323Z,80.91
2022-12-12T12:45:29.905Z,80.98
2022-12-12T12:48:10.362Z,81.13
2022-12-12T12:50:47.238Z,81.50
2022-12-12T12:53:18.114Z,81.68
2022-12-12T12:55:51.146Z,81.84
2022-12-12T12:58:24.597Z,81.84
2022-12-12T13:01:03.169Z,81.86
2022-12-12T13:03:40.893Z,81.89
2022-12-12T13:06:17.213Z,82.00
2022-12-12T13:08:54.524Z,82.18
2022-12-12T13:11:37.362Z,82.48
2022-12-12T13:14:16.973Z,82.45
2022-12-12T13:16:46.042Z,82.50
2022-12-12T13:19:33.496Z,82.60
2022-12-12T13:22:16.749Z,82.65
2022-12-12T13:24:58.109Z,82.96
2022-12-12T13:27:52.812Z,82.95
2022-12-12T13:30:58.854Z,82.88
2022-12-12T13:33:29.820Z,82.79
2022-12-12T13:36:17.250Z,83.09
2022-12-12T13:38:52.091Z,83.21
2022-12-12T13:41:20.174Z,83.16
2022-12-12T13:43:55.460Z,83.39
2022-12-12T13:46:23.601Z,83.60
2022-12-12T13:48:51.648Z,83.75
2022-12-12T13:51:30.386Z,83.82
2022-12-12T13:54:12.654Z,84.04
2022-12-12T13:56:59.558Z,84.34
2022-12-12T13:59:27.473Z,84.29
2022-12-12T14:01:56.882Z,84.13
2022-12-12T14:04:34.577Z,84.03
2022-12-12T14:07:16.722Z,84.19
2022-12-12T14:09:49.631Z,84.15
2022-12-12T14:12:18.028Z,84.06
2022-12-12T14:15:02.545Z,84.00
2022-12-12T14:17:36.874Z,84.28
2022-12-12T14:20:31.398Z,84.42
2022-12-12T14:22:59.271Z,84.30
2022-12-12T14:25:34.739Z,84.47
2022-12-12T14:28:17.351Z,84.70
2022-12-12T14:30:52.155Z,84.82
2022-12-12T14:33:50.280Z,84.73
2022-12-12T14:36:39.852Z,84.75
2022-12-12T14:39:15.066Z,84.83
2022-12-12T14:41:46.458Z,84.67
2022-12-12T14:44:37.086Z,84.61
2022-12-12T14:47:08.375Z,84.71
2022-12-12T14:49:36.669Z,84.93
2022-12-12T14:52:05.182Z,84.96
2022-12-12T14:54:33.220Z,84.93
2022-12-12T14:57:03.974Z,84.96
2022-12-12T14:59:33.439Z,84.89
2022-12-12T15:02:34.231Z,85.11
2022-12-12T15:05:05.486Z,85.14
2022-12-12T15:07:36.253Z,85.11
2022-12-12T15:10:26.610Z,85.45
2022-12-12T15:12:54.657Z,85.45
2022-12-12T15:15:30.143Z,85.31
2022-12-12T15:18:00.925Z,85.53
2022-12-12T15:20:30.649Z,85.64
2022-12-12T15:23:02.201Z,85.15
2022-12-12T15:25:33.203Z,84.81
2022-12-12T15:28:02.132Z,84.71
2022-12-12T15:30:40.718Z,84.35
2022-12-12T15:33:18.068Z,83.84
2022-12-12T15:35:59.667Z,83.69
2022-12-12T15:38:30.785Z,82.49
2022-12-12T15:41:01.505Z,82.11
2022-12-12T15:43:30.989Z,80.95
2022-12-12T15:46:14.086Z,80.23
2022-12-12T15:48:47.603Z,79.82
2022-12-12T15:51:24.358Z,78.88
2022-12-12T15:53:55.399Z,78.70
2022-12-12T15:56:28.863Z,78.80
2022-12-12T15:59:08.999Z,79.11
2022-12-12T16:01:38.367Z,78.93
2022-12-12T16:04:09.804Z,78.37
2022-12-12T16:06:40.799Z,77.64
2022-12-12T16:09:11.790Z,77.18
2022-12-12T16:11:45.604Z,77.05
2022-12-12T16:14:24.729Z,77.06
2022-12-12T16:16:59.595Z,76.74
2022-12-12T16:19:38.584Z,76.28
2022-12-12T16:22:18.866Z,76.20
2022-12-12T16:24:50.949Z,75.76
2022-12-12T16:27:19.535Z,75.47
2022-12-12T16:29:48.023Z,75.53
2022-12-12T16:32:19.102Z,73.46
2022-12-12T16:34:48.279Z,71.32
2022-12-12T16:37:18.392Z,70.16
2022-12-12T16:39:46.868Z,68.29
2022-12-12T16:42:19.977Z,66.37
2022-12-12T16:44:47.977Z,66.40
2022-12-12T16:47:22.171Z,66.45
2022-12-12T16:50:07.872Z,66.68
2022-12-12T16:52:36.321Z,66.01
2022-12-12T16:55:15.463Z,65.18
2022-12-12T16:57:43.484Z,63.45
2022-12-12T17:00:12.895Z,61.92
2022-12-12T17:02:41.400Z,61.81
2022-12-12T17:05:17.501Z,62.90
2022-12-12T17:07:45.386Z,63.49
2022-12-12T17:10:15.806Z,63.94
2022-12-12T17:12:44.562Z,64.35
2022-12-12T17:15:25.139Z,64.90
2022-12-12T17:17:53.209Z,65.16
2022-12-12T17:20:21.410Z,65.07
2022-12-12T17:22:50.963Z,64.71
2022-12-12T17:25:19.613Z,64.08
2022-12-12T17:27:48.693Z,64.22
2022-12-12T17:30:17.060Z,64.49
2022-12-12T17:35:31.332Z,65.83
2022-12-12T17:37:59.586Z,66.23
2022-12-12T17:40:27.464Z,66.62
2022-12-12T17:42:55.647Z,66.89
2022-12-12T17:45:23.924Z,67.25
2022-12-12T17:48:09.530Z,67.25
2022-12-12T17:50:41.681Z,67.50
2022-12-12T17:53:10.032Z,67.44
2022-12-12T17:55:54.206Z,67.04
2022-12-12T17:58:29.527Z,65.81
2022-12-12T18:00:58.012Z,65.35
2022-12-12T18:03:26.091Z,65.32
2022-12-12T18:05:54.068Z,64.86
2022-12-12T18:08:22.176Z,65.21
2022-12-12T18:10:50.284Z,65.17
2022-12-12T18:13:18.193Z,65.22
2022-12-12T18:15:46.296Z,65.46
2022-12-12T18:18:14.482Z,65.72
2022-12-12T18:20:42.505Z,65.84
2022-12-12T18:23:10.680Z,65.93
2022-12-12T18:25:38.788Z,66.10
2022-12-12T18:28:06.733Z,66.35
2022-12-12T18:30:34.702Z,66.70
2022-12-12T18:33:03.358Z,66.59
2022-12-12T18:35:31.375Z,66.62
2022-12-12T18:38:17.012Z,66.67
2022-12-12T19:40:53.943Z,65.93
2022-12-12T19:43:22.041Z,66.21
2022-12-12T19:45:50.304Z,66.57
2022-12-12T19:48:36.900Z,66.96
2022-12-12T19:51:09.303Z,67.18
2022-12-12T19:53:42.682Z,67.42
2022-12-12T19:56:14.070Z,67.70
2022-12-12T19:58:42.922Z,67.73
2022-12-12T20:01:18.179Z,68.18
2022-12-12T20:03:51.134Z,68.43
2022-12-12T20:06:19.849Z,68.54
2022-12-12T20:08:48.513Z,68.49
2022-12-12T20:11:18.754Z,68.52
2022-12-12T20:13:56.184Z,68.61
2022-12-12T20:16:26.221Z,68.51
2022-12-12T20:18:55.103Z,68.61
2022-12-12T20:21:59.246Z,68.69
2022-12-12T20:24:16.866Z,68.73
2022-12-12T20:26:45.987Z,68.70
2022-12-12T20:29:31.908Z,68.50
2022-12-12T20:32:01.360Z,68.07
2022-12-12T20:34:30.149Z,68.24
2022-12-12T20:36:58.886Z,68.38
2022-12-12T20:39:27.303Z,68.72
2022-12-12T20:41:57.133Z,68.72
2022-12-12T20:44:26.604Z,68.72
2022-12-12T20:46:55.331Z,68.78
2022-12-12T20:49:24.908Z,69.00
2022-12-12T20:51:56.378Z,68.87
2022-12-12T20:54:31.556Z,68.83
2022-12-12T20:57:17.137Z,68.91
2022-12-12T20:59:45.525Z,68.85
2022-12-12T21:02:18.197Z,68.99
2022-12-12T21:04:46.733Z,69.35
2022-12-12T21:07:15.204Z,69.47
2022-12-12T21:10:01.722Z,69.63
2022-12-12T21:12:30.372Z,69.75
2022-12-12T21:15:02.736Z,69.97
2022-12-12T21:17:31.625Z,69.95
2022-12-12T21:20:06.170Z,70.05
2022-12-12T21:22:35.075Z,69.82
2022-12-12T21:25:03.711Z,69.99
2022-12-12T21:27:31.847Z,69.99
2022-12-12T21:30:00.094Z,69.90
2022-12-12T21:32:28.269Z,70.06
2022-12-12T21:34:56.850Z,70.13
2022-12-12T21:37:25.297Z,70.19
2022-12-12T21:39:55.372Z,70.45
2022-12-12T21:42:25.190Z,70.52
2022-12-12T21:44:53.278Z,70.61
2022-12-12T21:47:21.242Z,70.75
2022-12-12T21:49:49.335Z,70.89
2022-12-12T21:52:35.031Z,70.97
2022-12-12T21:55:03.122Z,71.11
2022-12-12T21:57:31.333Z,71.12
2022-12-12T21:59:59.372Z,71.18
2022-12-12T22:02:27.595Z,71.13
2022-12-12T22:04:55.653Z,71.13
2022-12-12T22:07:23.596Z,71.26
2022-12-12T22:10:10.923Z,71.24
2022-12-12T22:12:39.690Z,71.45
2022-12-12T22:15:08.202Z,71.48
2022-12-12T22:17:36.251Z,71.66
2022-12-12T22:20:21.822Z,71.55
2022-12-12T22:22:49.913Z,71.51
2022-12-12T22:25:18.084Z,71.67
2022-12-12T22:27:47.188Z,71.78
2022-12-12T22:30:15.279Z,71.86
2022-12-12T22:32:43.279Z,72.41
2022-12-12T22:35:11.399Z,72.46
2022-12-12T22:37:39.696Z,71.88
2022-12-12T22:40:08.651Z,71.66
2022-12-12T22:42:36.675Z,71.75
2022-12-12T22:45:05.116Z,71.65
2022-12-12T22:47:33.091Z,71.93
2022-12-12T22:50:01.161Z,71.68
2022-12-12T22:52:29.182Z,71.94
2022-12-12T22:54:57.180Z,72.00
2022-12-12T22:57:25.127Z,72.14
2022-12-12T22:59:53.338Z,72.09
2022-12-12T23:02:25.122Z,72.11
2022-12-12T23:04:53.947Z,72.20
2022-12-12T23:07:39.964Z,72.29
2022-12-12T23:10:08.531Z,72.12
2022-12-12T23:12:40.011Z,72.16
2022-12-12T23:15:09.687Z,72.22
2022-12-12T23:17:37.731Z,72.33
2022-12-12T23:20:10.935Z,72.42
2022-12-12T23:22:39.163Z,72.48
2022-12-12T23:25:07.438Z,72.57
2022-12-12T23:27:35.526Z,72.58
2022-12-12T23:30:04.550Z,72.84
2022-12-12T23:32:32.665Z,73.24
2022-12-12T23:35:00.615Z,73.31
2022-12-12T23:37:28.919Z,73.45
2022-12-12T23:39:57.046Z,73.38
2022-12-12T23:42:25.670Z,73.19
2022-12-12T23:44:53.656Z,73.35
2022-12-12T23:47:21.814Z,73.57
2022-12-12T23:49:49.727Z,73.63
2022-12-12T23:52:17.704Z,73.75
2022-12-12T23:54:47.187Z,73.94
2022-12-12T23:57:15.814Z,74.21
2022-12-12T23:59:44.397Z,74.06
